Terminal Aerodrome Forecast
Issued by NWS Charleston, WV

Current Version | Previous Version | Text Only | Print | Product List | Glossary Off
Versions: 1 2 3 4 5 6 7 8 9 10 11 12 13 14 15 16 17 18 19 20 21 22 23 24 25 26 27 28

000
FTUS41 KRLX 170800 AAA
TAFHTS
TAF AMD
KHTS 170858Z 1709/1806 00000KT P6SM BKN060
      TEMPO 1710/1712 4SM BR
     FM171200 00000KT P6SM BKN045
     FM171700 23004KT P6SM VCTS BKN045CB
     FM180200 00000KT 6SM BR BKN050=

USA.gov is the U.S. government's official web portal to all federal, state and local government web resources and services.